createdAt,value
2018-05-15T00:01:16.285Z,4.70
2018-05-15T00:03:44.399Z,5.67
2018-05-15T00:06:12.518Z,5.30
2018-05-15T00:08:40.646Z,5.35
2018-05-15T00:11:08.770Z,6.33
2018-05-15T00:13:36.909Z,4.70
2018-05-15T00:16:05.029Z,5.20
2018-05-15T00:18:33.154Z,5.70
2018-05-15T00:21:01.287Z,5.17
2018-05-15T00:23:29.425Z,6.00
2018-05-15T00:25:57.565Z,5.20
2018-05-15T00:28:25.698Z,6.27
2018-05-15T00:30:53.905Z,6.67
2018-05-15T00:33:22.033Z,5.62
2018-05-15T00:35:50.156Z,7.43
2018-05-15T00:38:18.297Z,7.10
2018-05-15T00:40:46.421Z,6.70
2018-05-15T00:43:14.533Z,7.10
2018-05-15T00:45:42.672Z,5.90
2018-05-15T00:48:10.959Z,6.50
2018-05-15T00:50:39.091Z,7.40
2018-05-15T00:53:07.307Z,6.83
2018-05-15T00:55:44.148Z,6.70
2018-05-15T00:58:12.277Z,6.53
2018-05-15T01:00:40.407Z,6.90
2018-05-15T01:03:08.562Z,7.03
2018-05-15T01:05:36.669Z,7.37
2018-05-15T01:08:04.803Z,6.57
2018-05-15T01:10:32.953Z,7.43
2018-05-15T01:13:01.082Z,6.70
2018-05-15T01:15:29.208Z,7.93
2018-05-15T01:17:57.336Z,6.97
2018-05-15T01:20:25.621Z,7.13
2018-05-15T01:22:53.759Z,7.57
2018-05-15T01:25:21.894Z,8.38
2018-05-15T01:27:50.020Z,7.90
2018-05-15T01:30:18.134Z,7.97
2018-05-15T01:32:46.251Z,7.03
2018-05-15T01:35:14.387Z,8.30
2018-05-15T01:37:42.496Z,7.80
2018-05-15T01:40:10.617Z,8.00
2018-05-15T01:42:40.085Z,7.30
2018-05-15T01:45:08.200Z,7.20
2018-05-15T01:47:36.361Z,7.30
2018-05-15T01:50:04.539Z,7.80
2018-05-15T01:52:32.655Z,7.20
2018-05-15T01:55:00.782Z,7.87
2018-05-15T01:57:28.903Z,8.15
2018-05-15T01:59:57.807Z,7.77
2018-05-15T02:02:25.938Z,7.93
2018-05-15T02:04:54.059Z,8.53
2018-05-15T02:07:22.183Z,7.65
2018-05-15T02:09:50.325Z,7.70
2018-05-15T02:12:18.464Z,7.77
2018-05-15T02:14:46.582Z,8.80
2018-05-15T02:17:14.705Z,8.05
2018-05-15T02:19:42.861Z,9.63
2018-05-15T02:22:10.989Z,10.03
2018-05-15T02:24:40.251Z,8.80
2018-05-15T02:27:08.398Z,9.20
2018-05-15T02:29:36.528Z,8.00
2018-05-15T02:32:04.652Z,7.63
2018-05-15T02:34:32.790Z,7.85
2018-05-15T02:37:00.925Z,8.00
2018-05-15T02:39:29.060Z,7.73
2018-05-15T02:41:57.200Z,7.00
2018-05-15T02:44:25.321Z,7.50
2018-05-15T02:46:53.447Z,7.83
2018-05-15T02:49:21.580Z,6.97
2018-05-15T02:51:49.728Z,7.10
2018-05-15T02:54:17.914Z,7.60
2018-05-15T02:56:46.106Z,7.50
2018-05-15T02:59:14.186Z,8.45
2018-05-15T03:01:42.337Z,7.37
2018-05-15T03:04:10.499Z,8.10
2018-05-15T03:06:38.642Z,8.17
2018-05-15T03:09:06.839Z,9.77
2018-05-15T03:11:34.978Z,10.90
2018-05-15T03:14:03.108Z,10.23
2018-05-15T03:16:31.236Z,10.67
2018-05-15T03:18:59.373Z,11.20
2018-05-15T03:21:27.506Z,9.98
2018-05-15T03:23:55.643Z,11.70
2018-05-15T03:26:23.801Z,11.57
2018-05-15T03:28:51.926Z,11.87
2018-05-15T03:31:20.060Z,12.02
2018-05-15T03:33:48.207Z,11.30
2018-05-15T03:36:16.342Z,12.27
2018-05-15T03:38:44.472Z,13.67
2018-05-15T03:41:12.614Z,13.30
2018-05-15T03:43:40.741Z,11.90
2018-05-15T03:46:08.898Z,12.00
2018-05-15T03:48:37.022Z,13.50
2018-05-15T03:51:05.158Z,12.60
2018-05-15T03:53:33.303Z,13.33
2018-05-15T03:56:01.437Z,14.33
2018-05-15T03:58:29.558Z,13.90
2018-05-15T04:01:09.310Z,13.70
2018-05-15T04:03:49.138Z,14.50
2018-05-15T04:06:29.129Z,15.40
2018-05-15T04:08:57.294Z,14.27
2018-05-15T04:11:25.418Z,14.77
2018-05-15T04:13:53.546Z,14.63
2018-05-15T04:16:21.690Z,14.77
2018-05-15T04:18:49.824Z,14.98
2018-05-15T04:21:18.247Z,15.50
2018-05-15T04:23:46.388Z,15.60
2018-05-15T04:26:14.522Z,14.30
2018-05-15T04:28:42.663Z,15.67
2018-05-15T04:31:10.790Z,16.60
2018-05-15T04:33:38.934Z,14.60
2018-05-15T04:36:07.070Z,14.40
2018-05-15T04:38:35.209Z,14.23
2018-05-15T04:41:03.338Z,14.50
2018-05-15T04:43:31.531Z,14.63
2018-05-15T04:45:59.607Z,13.60
2018-05-15T04:48:27.757Z,13.57
2018-05-15T04:50:55.879Z,13.13
2018-05-15T04:53:24.026Z,14.13
2018-05-15T04:55:52.153Z,13.65
2018-05-15T04:58:20.296Z,13.40
2018-05-15T05:00:48.426Z,14.83
2018-05-15T05:03:16.555Z,14.00
2018-05-15T05:05:44.726Z,15.40
2018-05-15T05:08:12.865Z,13.43
2018-05-15T05:10:40.999Z,12.90
2018-05-15T05:13:09.168Z,13.43
2018-05-15T05:15:37.295Z,13.40
2018-05-15T05:18:05.436Z,12.77
2018-05-15T05:20:33.564Z,12.53
2018-05-15T05:23:01.723Z,13.80
2018-05-15T05:25:30.236Z,13.50
2018-05-15T05:27:58.379Z,13.80
2018-05-15T05:30:26.509Z,15.47
2018-05-15T05:32:54.647Z,14.23
2018-05-15T05:35:22.786Z,12.63
2018-05-15T05:37:50.915Z,13.17
2018-05-15T05:40:19.072Z,11.77
2018-05-15T05:42:47.217Z,10.80
2018-05-15T05:45:15.361Z,11.32
2018-05-15T05:47:43.488Z,10.30
2018-05-15T05:50:11.619Z,9.73
2018-05-15T05:52:39.751Z,9.20
2018-05-15T05:55:07.908Z,9.30
2018-05-15T05:57:36.038Z,7.70
2018-05-15T06:00:04.184Z,8.57
2018-05-15T06:02:32.295Z,8.90
2018-05-15T06:05:00.444Z,9.97
2018-05-15T06:07:28.627Z,10.53
2018-05-15T06:09:56.725Z,11.30
2018-05-15T06:12:24.876Z,12.60
2018-05-15T06:14:53.033Z,12.30
2018-05-15T06:17:21.177Z,12.63
2018-05-15T06:19:50.593Z,15.73
2018-05-15T06:22:18.716Z,14.50
2018-05-15T06:24:46.854Z,12.80
2018-05-15T06:27:15.001Z,14.70
2018-05-15T06:29:43.155Z,13.37
2018-05-15T06:32:11.306Z,14.10
2018-05-15T06:34:39.444Z,14.57
2018-05-15T06:37:07.654Z,14.07
2018-05-15T06:39:35.794Z,12.23
2018-05-15T06:42:03.956Z,11.87
2018-05-15T06:44:32.091Z,12.63
2018-05-15T06:47:00.235Z,13.10
2018-05-15T06:49:28.386Z,11.93
2018-05-15T06:51:56.531Z,11.83
2018-05-15T06:54:24.667Z,11.80
2018-05-15T06:56:52.842Z,12.10
2018-05-15T06:59:20.980Z,11.37
2018-05-15T07:01:49.126Z,11.20
2018-05-15T07:04:17.254Z,11.10
2018-05-15T07:06:45.378Z,10.83
2018-05-15T07:09:13.504Z,11.93
2018-05-15T07:11:41.700Z,10.93
2018-05-15T07:14:09.932Z,13.57
2018-05-15T07:16:37.977Z,11.17
2018-05-15T07:19:06.217Z,10.17
2018-05-15T07:21:34.366Z,11.77
2018-05-15T07:24:02.502Z,11.50
2018-05-15T07:26:30.667Z,12.13
2018-05-15T07:28:58.810Z,11.40
2018-05-15T07:31:26.939Z,12.37
2018-05-15T07:33:55.113Z,13.23
2018-05-15T07:36:23.255Z,12.70
2018-05-15T07:38:51.395Z,13.47
2018-05-15T07:41:19.569Z,11.43
2018-05-15T07:43:47.713Z,12.33
2018-05-15T07:46:15.843Z,11.60
2018-05-15T07:48:43.990Z,12.53
2018-05-15T07:51:12.178Z,12.50
2018-05-15T07:53:40.397Z,10.93
2018-05-15T07:56:08.464Z,12.20
2018-05-15T07:58:36.581Z,12.70
2018-05-15T08:01:04.706Z,10.83
2018-05-15T08:03:32.843Z,9.60
2018-05-15T08:06:01.000Z,11.10
2018-05-15T08:08:29.151Z,12.20
2018-05-15T08:10:57.289Z,13.83
2018-05-15T08:13:25.440Z,16.83
2018-05-15T08:15:53.586Z,18.40
2018-05-15T08:18:21.751Z,12.47
2018-05-15T08:20:49.887Z,12.50
2018-05-15T08:23:18.032Z,13.63
2018-05-15T08:25:46.185Z,12.83
2018-05-15T08:28:14.315Z,12.97
2018-05-15T08:30:42.483Z,13.32
2018-05-15T08:33:10.611Z,10.60
2018-05-15T08:35:38.748Z,10.65
2018-05-15T08:38:07.784Z,12.50
2018-05-15T08:40:35.928Z,10.27
2018-05-15T08:43:04.049Z,11.10
2018-05-15T08:45:32.931Z,11.67
2018-05-15T08:48:01.067Z,12.10
2018-05-15T08:50:29.225Z,12.03
2018-05-15T08:52:57.363Z,13.57
2018-05-15T08:55:25.507Z,12.80
2018-05-15T08:57:53.634Z,11.50
2018-05-15T09:00:21.773Z,11.17
2018-05-15T09:02:49.928Z,11.00
2018-05-15T09:05:18.077Z,11.50
2018-05-15T09:07:46.193Z,11.57
2018-05-15T09:10:14.343Z,13.17
2018-05-15T09:12:42.479Z,12.00
2018-05-15T09:15:10.619Z,12.27
2018-05-15T09:17:38.800Z,11.80
2018-05-15T09:20:06.936Z,10.10
2018-05-15T09:22:35.070Z,10.47
2018-05-15T09:25:03.223Z,10.87
2018-05-15T09:27:31.358Z,11.10
2018-05-15T09:29:59.507Z,10.60
2018-05-15T09:32:27.629Z,14.10
2018-05-15T09:34:55.783Z,10.80
2018-05-15T09:37:23.912Z,11.55
2018-05-15T09:39:52.070Z,11.80
2018-05-15T09:42:20.231Z,11.43
2018-05-15T09:44:48.376Z,12.07
2018-05-15T09:47:16.516Z,11.18
2018-05-15T09:49:44.650Z,11.20
2018-05-15T09:52:12.789Z,11.60
2018-05-15T09:54:40.929Z,11.10
2018-05-15T09:57:09.735Z,12.83
2018-05-15T09:59:37.864Z,11.50
2018-05-15T10:02:05.990Z,11.90
2018-05-15T10:04:34.134Z,12.60
2018-05-15T10:07:02.276Z,13.83
2018-05-15T10:09:30.463Z,12.63
2018-05-15T10:11:58.613Z,14.23
2018-05-15T10:14:26.743Z,15.70
2018-05-15T10:16:54.881Z,16.00
2018-05-15T10:19:23.024Z,11.73
2018-05-15T10:21:51.187Z,11.70
2018-05-15T10:24:19.356Z,15.77
2018-05-15T10:26:47.510Z,12.20
2018-05-15T10:29:15.636Z,12.23
2018-05-15T10:31:43.799Z,14.77
2018-05-15T10:34:11.945Z,10.90
2018-05-15T10:36:40.073Z,10.20
2018-05-15T10:39:08.227Z,12.83
2018-05-15T10:41:36.365Z,11.80
2018-05-15T10:44:04.618Z,13.93
2018-05-15T10:46:32.747Z,11.30
2018-05-15T10:49:00.891Z,10.20
2018-05-15T10:51:29.025Z,10.53
2018-05-15T10:53:57.174Z,11.13
2018-05-15T10:56:25.301Z,7.00
2018-05-15T10:58:53.429Z,6.30
2018-05-15T11:01:21.561Z,7.37
2018-05-15T11:03:49.691Z,6.93
2018-05-15T11:06:17.887Z,7.70
2018-05-15T11:08:45.976Z,7.10
2018-05-15T11:11:14.108Z,7.10
2018-05-15T11:13:42.226Z,7.70
2018-05-15T11:16:10.368Z,8.50
2018-05-15T11:18:46.299Z,9.20
2018-05-15T11:21:26.012Z,8.82
2018-05-15T11:26:56.942Z,10.47
2018-05-15T11:29:25.071Z,11.20
2018-05-15T11:31:53.222Z,11.20
2018-05-15T11:34:21.352Z,10.30
2018-05-15T11:36:49.488Z,11.13
2018-05-15T11:39:17.634Z,11.25
2018-05-15T11:41:45.825Z,11.47
2018-05-15T11:44:13.904Z,9.50
2018-05-15T11:46:42.065Z,11.07
2018-05-15T11:49:11.051Z,9.33
2018-05-15T11:51:39.308Z,6.73
2018-05-15T11:54:06.911Z,7.67
2018-05-15T11:56:35.116Z,8.33
2018-05-15T11:59:03.172Z,8.50
2018-05-15T12:01:31.335Z,10.00
2018-05-15T12:03:59.533Z,11.10
2018-05-15T12:06:27.708Z,11.67
2018-05-15T12:08:55.755Z,10.90
2018-05-15T12:11:23.894Z,11.17
2018-05-15T12:13:52.037Z,9.23
2018-05-15T12:16:20.150Z,11.37
2018-05-15T12:18:48.295Z,11.23
2018-05-15T12:21:16.423Z,10.70
2018-05-15T12:23:44.562Z,9.50
2018-05-15T12:26:12.695Z,9.97
2018-05-15T12:28:40.816Z,8.57
2018-05-15T12:31:08.952Z,8.97
2018-05-15T12:33:37.108Z,9.20
2018-05-15T12:36:05.711Z,9.00
2018-05-15T12:38:33.851Z,9.23
2018-05-15T12:41:01.985Z,8.60
2018-05-15T12:43:30.116Z,7.57
2018-05-15T12:45:58.251Z,6.78
2018-05-15T12:48:26.476Z,5.93
2018-05-15T12:50:54.536Z,4.70
2018-05-15T12:53:22.657Z,5.40
2018-05-15T12:55:50.786Z,5.00
2018-05-15T12:58:18.927Z,5.70
2018-05-15T13:00:47.052Z,6.70
2018-05-15T13:03:15.171Z,5.80
2018-05-15T13:05:43.306Z,4.83
2018-05-15T13:08:12.368Z,5.67
2018-05-15T13:10:40.506Z,5.63
2018-05-15T13:13:08.621Z,6.10
2018-05-15T13:15:36.747Z,5.60
2018-05-15T13:18:04.881Z,4.93
2018-05-15T13:20:33.007Z,5.00
2018-05-15T13:23:01.168Z,5.27
2018-05-15T13:25:29.309Z,5.93
2018-05-15T13:27:57.453Z,4.80
2018-05-15T13:30:25.574Z,4.40
2018-05-15T13:32:53.705Z,4.87
2018-05-15T13:35:21.847Z,5.20
2018-05-15T13:37:49.974Z,4.50
2018-05-15T13:40:18.129Z,4.60
2018-05-15T13:42:46.261Z,3.97
2018-05-15T13:45:14.629Z,4.50
2018-05-15T13:47:42.539Z,4.70
2018-05-15T13:50:10.668Z,4.70
2018-05-15T13:52:39.358Z,5.13
2018-05-15T13:55:07.508Z,4.90
2018-05-15T13:57:35.637Z,4.60
2018-05-15T14:00:03.785Z,5.00
2018-05-15T14:02:31.921Z,4.80
2018-05-15T14:05:00.050Z,4.10
2018-05-15T14:07:28.181Z,4.37
2018-05-15T14:09:56.330Z,4.43
2018-05-15T14:12:24.506Z,4.37
2018-05-15T14:14:52.590Z,5.27
2018-05-15T14:17:20.728Z,5.35
2018-05-15T14:19:48.848Z,5.47
2018-05-15T14:22:16.977Z,5.67
2018-05-15T14:24:45.163Z,5.67
2018-05-15T14:27:13.257Z,6.00
2018-05-15T14:29:41.388Z,5.37
2018-05-15T14:32:09.531Z,5.70
2018-05-15T14:34:37.664Z,5.00
2018-05-15T14:37:05.786Z,3.30
2018-05-15T14:39:34.596Z,3.13
2018-05-15T14:42:14.632Z,2.60
2018-05-15T14:44:42.759Z,3.10
2018-05-15T14:47:10.875Z,2.80
2018-05-15T14:49:39.005Z,2.40
2018-05-15T14:52:07.139Z,2.53
2018-05-15T14:54:35.251Z,3.50
2018-05-15T14:57:03.371Z,3.20
2018-05-15T14:59:31.497Z,4.30
2018-05-15T15:01:59.620Z,3.70
2018-05-15T15:04:27.733Z,3.67
2018-05-15T15:06:55.858Z,4.90
2018-05-15T15:09:24.295Z,6.97
2018-05-15T15:11:52.433Z,5.40
2018-05-15T15:14:20.559Z,6.00
2018-05-15T15:16:48.673Z,4.40
2018-05-15T15:19:16.813Z,4.77
2018-05-15T15:21:45.295Z,4.47
2018-05-15T15:24:13.410Z,4.57
2018-05-15T15:26:41.542Z,4.20
2018-05-15T15:29:10.844Z,4.47
2018-05-15T15:31:38.935Z,4.60
2018-05-15T15:34:07.387Z,4.77
2018-05-15T15:36:35.507Z,5.50
2018-05-15T15:39:03.637Z,4.68
2018-05-15T15:41:31.776Z,5.32
2018-05-15T15:43:59.922Z,5.07
2018-05-15T15:46:28.085Z,5.50
2018-05-15T15:48:56.336Z,5.40
2018-05-15T15:51:24.473Z,4.93
2018-05-15T15:53:52.600Z,5.40
2018-05-15T15:56:20.732Z,5.60
2018-05-15T15:58:48.859Z,5.20
2018-05-15T16:01:16.995Z,5.00
2018-05-15T16:03:45.139Z,5.83
2018-05-15T16:06:13.250Z,5.53
2018-05-15T16:08:41.397Z,5.00
2018-05-15T16:11:10.477Z,5.25
2018-05-15T16:13:38.610Z,5.20
2018-05-15T16:16:06.973Z,5.23
2018-05-15T16:18:35.101Z,5.70
2018-05-15T16:21:03.479Z,5.67
2018-05-15T16:23:31.588Z,7.63
2018-05-15T16:25:59.698Z,6.80
2018-05-15T16:28:27.864Z,6.10
2018-05-15T16:30:55.998Z,6.27
2018-05-15T16:33:24.114Z,6.67
2018-05-15T16:35:52.237Z,5.60
2018-05-15T16:38:20.375Z,6.30
2018-05-15T16:40:48.490Z,6.67
2018-05-15T16:43:16.617Z,7.00
2018-05-15T16:45:44.741Z,7.73
2018-05-15T16:48:12.867Z,6.97
2018-05-15T16:50:41.027Z,5.73
2018-05-15T16:53:10.010Z,6.05
2018-05-15T16:55:38.148Z,6.60
2018-05-15T16:58:06.318Z,6.40
2018-05-15T17:00:34.450Z,5.90
2018-05-15T17:03:02.573Z,9.93
2018-05-15T17:05:30.695Z,9.37
2018-05-15T17:07:58.934Z,8.43
2018-05-15T17:10:26.991Z,8.02
2018-05-15T17:12:55.141Z,8.03
2018-05-15T17:15:23.264Z,9.13
2018-05-15T17:17:51.393Z,6.37
2018-05-15T17:20:19.510Z,7.40
2018-05-15T17:22:47.639Z,5.83
2018-05-15T17:25:15.786Z,6.75
2018-05-15T17:27:43.900Z,6.33
2018-05-15T17:30:12.019Z,6.47
2018-05-15T17:32:41.267Z,6.70
2018-05-15T17:35:09.447Z,7.23
2018-05-15T17:37:37.597Z,7.60
2018-05-15T17:40:05.755Z,7.43
2018-05-15T17:42:33.876Z,7.70
2018-05-15T17:45:01.994Z,7.63
2018-05-15T17:47:30.137Z,7.65
2018-05-15T17:49:58.264Z,7.40
2018-05-15T17:52:26.381Z,7.40
2018-05-15T17:54:54.499Z,7.87
2018-05-15T17:57:22.623Z,7.47
2018-05-15T17:59:50.765Z,8.40
2018-05-15T18:02:18.864Z,8.23
2018-05-15T18:04:47.197Z,8.70
2018-05-15T18:07:15.324Z,12.17
2018-05-15T18:09:44.440Z,14.10
2018-05-15T18:12:12.583Z,9.60
2018-05-15T18:14:40.723Z,12.17
2018-05-15T18:17:08.865Z,18.55
2018-05-15T18:19:37.055Z,12.47
2018-05-15T18:22:05.192Z,10.13
2018-05-15T18:24:33.404Z,8.63
2018-05-15T18:27:01.564Z,9.17
2018-05-15T18:29:29.697Z,9.10
2018-05-15T18:31:58.266Z,8.60
2018-05-15T18:34:26.397Z,9.20
2018-05-15T18:36:54.545Z,11.10
2018-05-15T18:39:22.657Z,9.93
2018-05-15T18:41:50.793Z,11.93
2018-05-15T18:44:18.952Z,11.30
2018-05-15T18:46:47.106Z,11.40
2018-05-15T18:49:15.288Z,12.75
2018-05-15T18:51:43.447Z,12.32
2018-05-15T18:54:11.593Z,13.33
2018-05-15T18:56:39.731Z,13.10
2018-05-15T18:59:07.942Z,11.93
2018-05-15T19:01:36.030Z,11.80
2018-05-15T19:04:04.165Z,15.00
2018-05-15T19:06:32.448Z,14.20
2018-05-15T19:09:00.564Z,15.17
2018-05-15T19:11:28.740Z,14.77
2018-05-15T19:13:56.957Z,16.20
2018-05-15T19:16:25.044Z,17.10
2018-05-15T19:18:53.173Z,19.00
2018-05-15T19:21:21.308Z,20.83
2018-05-15T19:23:49.453Z,22.03
2018-05-15T19:26:17.596Z,23.67
2018-05-15T19:28:45.750Z,23.87
2018-05-15T19:31:16.756Z,25.17
2018-05-15T19:33:50.357Z,26.20
2018-05-15T19:36:18.505Z,26.30
2018-05-15T19:38:46.642Z,27.67
2018-05-15T19:41:19.727Z,27.40
2018-05-15T19:43:47.868Z,28.83
2018-05-15T19:46:16.000Z,27.23
2018-05-15T19:48:44.140Z,26.60
2018-05-15T19:51:12.297Z,30.20
2018-05-15T19:53:40.435Z,27.33
2018-05-15T19:56:08.586Z,28.23
2018-05-15T19:58:36.745Z,28.63
2018-05-15T20:01:04.863Z,27.37
2018-05-15T20:03:33.000Z,25.40
2018-05-15T20:06:01.138Z,25.40
2018-05-15T20:08:29.281Z,26.60
2018-05-15T20:10:57.418Z,26.80
2018-05-15T20:13:25.558Z,26.70
2018-05-15T20:15:53.696Z,27.10
2018-05-15T20:18:21.845Z,27.30
2018-05-15T20:20:49.982Z,27.17
2018-05-15T20:23:18.114Z,28.75
2018-05-15T20:25:46.267Z,29.07
2018-05-15T20:28:14.394Z,30.40
2018-05-15T20:30:42.536Z,29.73
2018-05-15T20:33:10.694Z,30.37
2018-05-15T20:35:38.826Z,29.47
2018-05-15T20:38:07.110Z,28.23
2018-05-15T20:40:35.275Z,29.20
2018-05-15T20:43:03.403Z,31.07
2018-05-15T20:45:31.558Z,31.77
2018-05-15T20:47:59.712Z,31.50
2018-05-15T20:50:27.851Z,34.90
2018-05-15T20:52:55.985Z,31.37
2018-05-15T20:55:24.389Z,32.30
2018-05-15T20:57:52.546Z,32.27
2018-05-15T21:00:20.683Z,31.70
2018-05-15T21:02:48.825Z,31.10
2018-05-15T21:05:16.983Z,31.77
2018-05-15T21:07:45.112Z,31.10
2018-05-15T21:10:13.233Z,32.60
2018-05-15T21:12:41.370Z,32.20
2018-05-15T21:15:10.128Z,33.53
2018-05-15T21:17:38.219Z,33.30
2018-05-15T21:20:06.349Z,35.10
2018-05-15T21:22:34.491Z,35.10
2018-05-15T21:25:02.633Z,32.97
2018-05-15T21:27:30.781Z,32.03
2018-05-15T21:29:58.920Z,32.80
2018-05-15T21:32:27.086Z,32.73
2018-05-15T21:34:55.218Z,33.00
2018-05-15T21:37:23.377Z,32.92
2018-05-15T21:39:51.541Z,32.37
2018-05-15T21:42:19.710Z,31.33
2018-05-15T21:44:47.839Z,32.40
2018-05-15T21:47:16.015Z,31.37
2018-05-15T21:49:44.145Z,31.57
2018-05-15T21:52:12.281Z,32.97
2018-05-15T21:54:40.426Z,31.03
2018-05-15T21:57:08.590Z,32.00
2018-05-15T21:59:36.733Z,30.47
2018-05-15T22:02:04.880Z,33.30
2018-05-15T22:04:33.017Z,34.90
2018-05-15T22:07:01.162Z,31.37
2018-05-15T22:09:29.297Z,29.90
2018-05-15T22:12:09.275Z,31.27
2018-05-15T22:14:49.204Z,31.00
2018-05-15T22:17:29.061Z,31.20
2018-05-15T22:20:09.136Z,30.20
2018-05-15T22:22:36.729Z,29.90
2018-05-15T22:25:06.295Z,27.63
2018-05-15T22:27:34.422Z,25.27
2018-05-15T22:30:02.578Z,27.20
2018-05-15T22:32:30.742Z,27.97
2018-05-15T22:34:58.888Z,25.03
2018-05-15T22:37:27.017Z,26.47
2018-05-15T22:39:55.151Z,25.40
2018-05-15T22:42:23.298Z,23.50
2018-05-15T22:44:51.433Z,25.10
2018-05-15T22:47:19.573Z,22.23
2018-05-15T22:49:47.761Z,22.63
2018-05-15T22:52:15.900Z,20.93
2018-05-15T22:54:44.025Z,21.67
2018-05-15T22:57:12.188Z,20.47
2018-05-15T22:59:40.316Z,17.50
2018-05-15T23:02:08.449Z,16.40
2018-05-15T23:04:36.599Z,13.57
2018-05-15T23:07:07.800Z,12.00
2018-05-15T23:09:35.940Z,11.00
2018-05-15T23:12:04.062Z,9.33
2018-05-15T23:14:32.186Z,7.80
2018-05-15T23:17:00.917Z,7.23
2018-05-15T23:19:29.047Z,7.10
2018-05-15T23:21:57.167Z,7.30
2018-05-15T23:24:25.307Z,6.70
2018-05-15T23:26:53.428Z,7.33
2018-05-15T23:29:21.574Z,7.75
2018-05-15T23:31:49.692Z,7.30
2018-05-15T23:34:17.818Z,7.60
2018-05-15T23:36:45.943Z,7.93
2018-05-15T23:39:14.063Z,6.70
2018-05-15T23:41:42.187Z,7.90
2018-05-15T23:44:10.321Z,8.27
2018-05-15T23:46:38.474Z,7.20
2018-05-15T23:49:06.628Z,7.03
2018-05-15T23:51:34.741Z,6.73
2018-05-15T23:54:02.871Z,6.83
2018-05-15T23:56:31.000Z,7.37
2018-05-15T23:58:59.120Z,6.77
